Accueil
METAR-TAF:

METAR-TAF

Aéroports :

Luxeuil-les-Bains, France

Base aérienne 116 Luxeuil-Saint Sauveur

latitude: 47-47N, longitude: 006-21E, altitude: 278 m

Observation

Le bulletin a été fait il y a 37 minutes, à 06:00 UTC
Vent 3 kt de direction variable
Température 13°C
Humidité 94%
Pression 1017 hPa
Visibilité 10 km ou plus
pas de nuages en-dessous de 1500 mètres et pas de cumulonimbus.

METAR: LFSX 210600Z AUTO VRB03KT CAVOK 13/12 Q1017 NOSIG

Heure: 08:37 (06:37 UTC)

Prévision

Le bulletin a été fait il y a 2 heures et 37 minutes, à 04:00 UTC
Prévision valable du 21 à 04 UTC au 22 à 03 UTC
Vent 3 kt de direction variable
Visibilité 10 km ou plus
Nuages fragmentés à une hauteur de 3500 ft
Temporairement
du 21 à 15 UTC au 21 à 24 UTC
Visibilité: 3000 m
Nuages fragmentés à une hauteur de 1000 ft
pluie

TAF: LFSX 210400Z 2104/2203 VRB03KT 9999 BKN035 TEMPO 2115/2124 3000 RA BKN010

Observations et prévisions météorologiques de plus de 4000 aéroports (messages METAR et TAF).

Les stations disponibles sont représentées par des disques jaunes et rouges sur la carte.

Passer la souris dessus pour voir le nom de la station.

Cliquer dessus pour voir les observations et prévisions météorologiques.

Pour changer de carte: cliquez sur les boutons verts avec une croix noire pour zoomer, sur le bouton vert avec un tiret pour effectuer un zoom arrière, ou sur les flèches vertes pour les cartes adjacentes.


METAR-TAF: